sensor_id;sensor_type;location;lat;lon;timestamp;pressure;altitude;pressure_sealevel;temperature;humidity
83557;BME280;73523;55.740;13.276;2024-02-28T00:00:04;101118.06;;;23.47;29.81
83557;BME280;73523;55.740;13.276;2024-02-28T00:02:29;101108.91;;;23.47;29.97
83557;BME280;73523;55.740;13.276;2024-02-28T00:04:55;101102.56;;;23.46;29.59
83557;BME280;73523;55.740;13.276;2024-02-28T00:07:20;101098.09;;;23.45;29.79
83557;BME280;73523;55.740;13.276;2024-02-28T00:09:46;101103.63;;;23.45;29.61
83557;BME280;73523;55.740;13.276;2024-02-28T00:12:11;101099.19;;;23.44;29.88
83557;BME280;73523;55.740;13.276;2024-02-28T00:14:37;101099.44;;;23.43;29.98
83557;BME280;73523;55.740;13.276;2024-02-28T00:17:02;101092.78;;;23.39;29.92
83557;BME280;73523;55.740;13.276;2024-02-28T00:19:27;101101.66;;;23.41;29.69
83557;BME280;73523;55.740;13.276;2024-02-28T00:21:53;101094.44;;;23.40;29.46
83557;BME280;73523;55.740;13.276;2024-02-28T00:24:18;101093.34;;;23.41;29.61
83557;BME280;73523;55.740;13.276;2024-02-28T00:26:44;101099.16;;;23.39;29.33
83557;BME280;73523;55.740;13.276;2024-02-28T00:29:09;101106.59;;;23.39;29.67
83557;BME280;73523;55.740;13.276;2024-02-28T00:31:38;101102.16;;;23.38;29.64
83557;BME280;73523;55.740;13.276;2024-02-28T00:34:03;101104.09;;;23.37;29.57
83557;BME280;73523;55.740;13.276;2024-02-28T00:36:28;101097.13;;;23.34;29.37
83557;BME280;73523;55.740;13.276;2024-02-28T00:38:54;101093.53;;;23.34;29.36
83557;BME280;73523;55.740;13.276;2024-02-28T00:41:19;101092.94;;;23.32;29.82
83557;BME280;73523;55.740;13.276;2024-02-28T00:43:44;101091.53;;;23.29;29.63
83557;BME280;73523;55.740;13.276;2024-02-28T00:46:10;101101.78;;;23.29;29.59
83557;BME280;73523;55.740;13.276;2024-02-28T00:48:38;101106.72;;;23.27;29.46
83557;BME280;73523;55.740;13.276;2024-02-28T00:51:04;101097.25;;;23.23;29.56
83557;BME280;73523;55.740;13.276;2024-02-28T00:53:30;101096.41;;;23.22;29.53
83557;BME280;73523;55.740;13.276;2024-02-28T00:55:55;101087.28;;;23.22;29.72
83557;BME280;73523;55.740;13.276;2024-02-28T00:58:20;101097.50;;;23.21;29.71
83557;BME280;73523;55.740;13.276;2024-02-28T01:00:47;101086.13;;;23.18;29.58
83557;BME280;73523;55.740;13.276;2024-02-28T01:03:12;101092.16;;;23.15;29.46
83557;BME280;73523;55.740;13.276;2024-02-28T01:05:39;101089.38;;;23.15;29.71
83557;BME280;73523;55.740;13.276;2024-02-28T01:08:05;101087.72;;;23.14;29.65
83557;BME280;73523;55.740;13.276;2024-02-28T01:10:31;101086.03;;;23.13;29.53
83557;BME280;73523;55.740;13.276;2024-02-28T01:12:57;101085.19;;;23.12;29.75
83557;BME280;73523;55.740;13.276;2024-02-28T01:15:22;101090.97;;;23.11;29.39
83557;BME280;73523;55.740;13.276;2024-02-28T01:17:48;101082.69;;;23.11;29.55
83557;BME280;73523;55.740;13.276;2024-02-28T01:20:13;101074.88;;;23.08;29.82
83557;BME280;73523;55.740;13.276;2024-02-28T01:22:39;101077.94;;;23.06;29.83
83557;BME280;73523;55.740;13.276;2024-02-28T01:25:05;101073.50;;;23.05;29.79
83557;BME280;73523;55.740;13.276;2024-02-28T01:27:30;101076.25;;;23.05;29.56
83557;BME280;73523;55.740;13.276;2024-02-28T01:29:56;101073.75;;;23.04;29.79
83557;BME280;73523;55.740;13.276;2024-02-28T01:32:21;101076.75;;;23.02;29.49
83557;BME280;73523;55.740;13.276;2024-02-28T01:34:46;101075.06;;;23.01;29.55
83557;BME280;73523;55.740;13.276;2024-02-28T01:37:12;101075.31;;;22.99;29.71
83557;BME280;73523;55.740;13.276;2024-02-28T01:39:38;101071.97;;;22.97;29.71
83557;BME280;73523;55.740;13.276;2024-02-28T01:42:03;101065.84;;;22.95;29.62
83557;BME280;73523;55.740;13.276;2024-02-28T01:44:28;101065.84;;;22.95;29.47
83557;BME280;73523;55.740;13.276;2024-02-28T01:46:54;101062.53;;;22.93;29.69
83557;BME280;73523;55.740;13.276;2024-02-28T01:49:22;101061.69;;;22.93;29.46
83557;BME280;73523;55.740;13.276;2024-02-28T01:51:49;101058.34;;;22.91;29.80
83557;BME280;73523;55.740;13.276;2024-02-28T01:54:15;101056.91;;;22.88;29.54
83557;BME280;73523;55.740;13.276;2024-02-28T01:56:41;101059.69;;;22.88;29.46
83557;BME280;73523;55.740;13.276;2024-02-28T01:59:07;101062.69;;;22.87;29.66
83557;BME280;73523;55.740;13.276;2024-02-28T02:01:35;101058.50;;;22.84;29.65
83557;BME280;73523;55.740;13.276;2024-02-28T02:04:01;101064.28;;;22.83;29.79
83557;BME280;73523;55.740;13.276;2024-02-28T02:06:26;101064.56;;;22.81;29.53
83557;BME280;73523;55.740;13.276;2024-02-28T02:08:52;101063.72;;;22.81;29.80
83557;BME280;73523;55.740;13.276;2024-02-28T02:11:17;101055.66;;;22.79;29.62
83557;BME280;73523;55.740;13.276;2024-02-28T02:13:49;101047.63;;;22.78;29.97
83557;BME280;73523;55.740;13.276;2024-02-28T02:16:15;101044.03;;;22.77;29.73
83557;BME280;73523;55.740;13.276;2024-02-28T02:18:41;101043.66;;;22.74;29.86
83557;BME280;73523;55.740;13.276;2024-02-28T02:21:06;101048.94;;;22.75;29.73
83557;BME280;73523;55.740;13.276;2024-02-28T02:23:32;101046.78;;;22.77;29.55
83557;BME280;73523;55.740;13.276;2024-02-28T02:25:57;101052.31;;;22.77;29.93
83557;BME280;73523;55.740;13.276;2024-02-28T02:28:23;101043.19;;;22.77;29.83
83557;BME280;73523;55.740;13.276;2024-02-28T02:30:48;101044.03;;;22.77;29.82
83557;BME280;73523;55.740;13.276;2024-02-28T02:33:13;101042.34;;;22.76;29.73
83557;BME280;73523;55.740;13.276;2024-02-28T02:35:39;101030.47;;;22.76;29.67
83557;BME280;73523;55.740;13.276;2024-02-28T02:38:04;101035.97;;;22.76;29.85
83557;BME280;73523;55.740;13.276;2024-02-28T02:40:30;101034.06;;;22.76;29.82
83557;BME280;73523;55.740;13.276;2024-02-28T02:42:55;101027.91;;;22.74;29.75
83557;BME280;73523;55.740;13.276;2024-02-28T02:45:20;101032.59;;;22.74;29.63
83557;BME280;73523;55.740;13.276;2024-02-28T02:47:46;101022.63;;;22.73;29.52
83557;BME280;73523;55.740;13.276;2024-02-28T02:50:11;101024.56;;;22.72;29.53
83557;BME280;73523;55.740;13.276;2024-02-28T02:52:37;101020.94;;;22.72;29.49
83557;BME280;73523;55.740;13.276;2024-02-28T02:55:03;101020.13;;;22.71;29.46
83557;BME280;73523;55.740;13.276;2024-02-28T02:57:28;101020.94;;;22.72;29.86
83557;BME280;73523;55.740;13.276;2024-02-28T02:59:56;101022.03;;;22.71;29.85
83557;BME280;73523;55.740;13.276;2024-02-28T03:02:21;101020.13;;;22.71;29.80
83557;BME280;73523;55.740;13.276;2024-02-28T03:04:46;101021.78;;;22.72;29.80
83557;BME280;73523;55.740;13.276;2024-02-28T03:07:12;101019.28;;;22.71;29.49
83557;BME280;73523;55.740;13.276;2024-02-28T03:09:37;101021.47;;;22.69;29.62
83557;BME280;73523;55.740;13.276;2024-02-28T03:12:02;101016.78;;;22.69;29.56
83557;BME280;73523;55.740;13.276;2024-02-28T03:14:28;101009.59;;;22.68;29.66
83557;BME280;73523;55.740;13.276;2024-02-28T03:16:53;101016.19;;;22.67;29.72
83557;BME280;73523;55.740;13.276;2024-02-28T03:19:19;101014.53;;;22.66;29.51
83557;BME280;73523;55.740;13.276;2024-02-28T03:21:45;101013.69;;;22.66;29.88
83557;BME280;73523;55.740;13.276;2024-02-28T03:24:10;101007.31;;;22.65;29.67
83557;BME280;73523;55.740;13.276;2024-02-28T03:26:35;101010.94;;;22.66;29.59
83557;BME280;73523;55.740;13.276;2024-02-28T03:29:01;101002.06;;;22.63;29.58
83557;BME280;73523;55.740;13.276;2024-02-28T03:31:27;101002.63;;;22.66;29.42
83557;BME280;73523;55.740;13.276;2024-02-28T03:33:52;101013.69;;;22.66;29.59
83557;BME280;73523;55.740;13.276;2024-02-28T03:36:17;101020.06;;;22.66;29.37
83557;BME280;73523;55.740;13.276;2024-02-28T03:38:43;101018.97;;;22.67;29.54
83557;BME280;73523;55.740;13.276;2024-02-28T03:41:08;101017.88;;;22.68;29.80
83557;BME280;73523;55.740;13.276;2024-02-28T03:43:34;101012.09;;;22.70;29.36
83557;BME280;73523;55.740;13.276;2024-02-28T03:45:59;101010.19;;;22.70;29.51
83557;BME280;73523;55.740;13.276;2024-02-28T03:48:24;101010.19;;;22.70;29.34
83557;BME280;73523;55.740;13.276;2024-02-28T03:50:50;101009.06;;;22.71;29.22
83557;BME280;73523;55.740;13.276;2024-02-28T03:53:16;101017.09;;;22.73;29.52
83557;BME280;73523;55.740;13.276;2024-02-28T03:55:41;101022.63;;;22.73;29.23
83557;BME280;73523;55.740;13.276;2024-02-28T03:58:06;101014.34;;;22.73;29.50
83557;BME280;73523;55.740;13.276;2024-02-28T04:00:34;101011.31;;;22.74;29.14
83557;BME280;73523;55.740;13.276;2024-02-28T04:03:00;101007.72;;;22.74;29.39
83557;BME280;73523;55.740;13.276;2024-02-28T04:05:25;101015.19;;;22.73;29.23
83557;BME280;73523;55.740;13.276;2024-02-28T04:07:50;101015.19;;;22.73;29.16
83557;BME280;73523;55.740;13.276;2024-02-28T04:10:16;101014.34;;;22.73;29.29
83557;BME280;73523;55.740;13.276;2024-02-28T04:12:43;101007.97;;;22.72;29.16
83557;BME280;73523;55.740;13.276;2024-02-28T04:15:10;101021.53;;;22.74;29.31
83557;BME280;73523;55.740;13.276;2024-02-28T04:17:36;101026.81;;;22.75;29.22
83557;BME280;73523;55.740;13.276;2024-02-28T04:20:01;101031.50;;;22.75;29.26
83557;BME280;73523;55.740;13.276;2024-02-28T04:22:30;101032.34;;;22.75;29.28
83557;BME280;73523;55.740;13.276;2024-02-28T04:24:56;101018.53;;;22.75;28.90
83557;BME280;73523;55.740;13.276;2024-02-28T04:27:21;101031.03;;;22.78;29.28
83557;BME280;73523;55.740;13.276;2024-02-28T04:29:47;101025.53;;;22.78;29.24
83557;BME280;73523;55.740;13.276;2024-02-28T04:32:12;101026.34;;;22.78;29.00
83557;BME280;73523;55.740;13.276;2024-02-28T04:34:38;101029.13;;;22.78;29.19
83557;BME280;73523;55.740;13.276;2024-02-28T04:37:03;101029.72;;;22.80;29.30
83557;BME280;73523;55.740;13.276;2024-02-28T04:39:29;101021.91;;;22.77;29.15
83557;BME280;73523;55.740;13.276;2024-02-28T04:41:54;101027.78;;;22.81;29.05
83557;BME280;73523;55.740;13.276;2024-02-28T04:44:20;101025.03;;;22.81;29.31
83557;BME280;73523;55.740;13.276;2024-02-28T04:46:45;101026.69;;;22.82;28.95
83557;BME280;73523;55.740;13.276;2024-02-28T04:49:10;101027.50;;;22.82;29.10
83557;BME280;73523;55.740;13.276;2024-02-28T04:51:35;101020.34;;;22.81;29.01
83557;BME280;73523;55.740;13.276;2024-02-28T04:54:01;101029.47;;;22.82;29.08
83557;BME280;73523;55.740;13.276;2024-02-28T04:56:26;101033.03;;;22.82;29.05
83557;BME280;73523;55.740;13.276;2024-02-28T04:58:52;101033.03;;;22.82;29.20
83557;BME280;73523;55.740;13.276;2024-02-28T05:01:17;101033.88;;;22.83;29.14
83557;BME280;73523;55.740;13.276;2024-02-28T05:03:42;101034.72;;;22.83;29.13
83557;BME280;73523;55.740;13.276;2024-02-28T05:06:07;101025.56;;;22.83;29.13
83557;BME280;73523;55.740;13.276;2024-02-28T05:08:33;101036.97;;;22.86;30.26
83557;BME280;73523;55.740;13.276;2024-02-28T05:10:58;101020.28;;;22.98;30.40
83557;BME280;73523;55.740;13.276;2024-02-28T05:13:23;101019.88;;;23.06;29.75
83557;BME280;73523;55.740;13.276;2024-02-28T05:15:49;101018.75;;;23.07;29.56
83557;BME280;73523;55.740;13.276;2024-02-28T05:18:16;101023.13;;;23.03;29.32
83557;BME280;73523;55.740;13.276;2024-02-28T05:20:41;101017.00;;;23.01;29.48
83557;BME280;73523;55.740;13.276;2024-02-28T05:23:06;101015.34;;;23.00;29.58
83557;BME280;73523;55.740;13.276;2024-02-28T05:25:32;101018.09;;;23.00;29.77
83557;BME280;73523;55.740;13.276;2024-02-28T05:27:57;101011.75;;;22.99;29.46
83557;BME280;73523;55.740;13.276;2024-02-28T05:30:22;101005.63;;;22.97;29.57
83557;BME280;73523;55.740;13.276;2024-02-28T05:32:48;101012.31;;;23.02;29.43
83557;BME280;73523;55.740;13.276;2024-02-28T05:35:13;101011.50;;;23.01;29.43
83557;BME280;73523;55.740;13.276;2024-02-28T05:37:39;101006.78;;;23.02;29.41
83557;BME280;73523;55.740;13.276;2024-02-28T05:40:07;101021.47;;;23.02;29.52
83557;BME280;73523;55.740;13.276;2024-02-28T05:42:32;101015.94;;;23.02;29.22
83557;BME280;73523;55.740;13.276;2024-02-28T05:44:57;101018.69;;;23.02;29.33
83557;BME280;73523;55.740;13.276;2024-02-28T05:47:23;101019.53;;;23.03;29.25
83557;BME280;73523;55.740;13.276;2024-02-28T05:49:48;101015.94;;;23.02;29.29
83557;BME280;73523;55.740;13.276;2024-02-28T05:52:13;101015.09;;;23.02;29.46
83557;BME280;73523;55.740;13.276;2024-02-28T05:54:40;101014.00;;;23.03;29.21
83557;BME280;73523;55.740;13.276;2024-02-28T05:57:05;101009.06;;;23.05;29.15
83557;BME280;73523;55.740;13.276;2024-02-28T05:59:30;101013.75;;;23.04;29.31
83557;BME280;73523;55.740;13.276;2024-02-28T06:01:56;101014.84;;;23.03;29.26
83557;BME280;73523;55.740;13.276;2024-02-28T06:04:21;101014.00;;;23.03;29.34
83557;BME280;73523;55.740;13.276;2024-02-28T06:06:46;101022.03;;;23.04;29.06
83557;BME280;73523;55.740;13.276;2024-02-28T06:09:12;101023.44;;;23.07;29.35
83557;BME280;73523;55.740;13.276;2024-02-28T06:11:37;101017.91;;;23.07;29.18
83557;BME280;73523;55.740;13.276;2024-02-28T06:14:02;101022.34;;;23.08;28.87
83557;BME280;73523;55.740;13.276;2024-02-28T06:16:30;101015.72;;;23.09;28.97
83557;BME280;73523;55.740;13.276;2024-02-28T06:18:55;101019.09;;;23.11;28.96
83557;BME280;73523;55.740;13.276;2024-02-28T06:21:23;101014.13;;;23.13;29.16
83557;BME280;73523;55.740;13.276;2024-02-28T06:23:48;101023.28;;;23.13;29.02
83557;BME280;73523;55.740;13.276;2024-02-28T06:26:14;101019.66;;;23.13;29.02
83557;BME280;73523;55.740;13.276;2024-02-28T06:28:45;101024.94;;;23.14;29.07
83557;BME280;73523;55.740;13.276;2024-02-28T06:31:14;101031.31;;;23.15;28.92
83557;BME280;73523;55.740;13.276;2024-02-28T06:33:40;101036.84;;;23.15;28.82
83557;BME280;73523;55.740;13.276;2024-02-28T06:36:06;101041.28;;;23.16;29.00
83557;BME280;73523;55.740;13.276;2024-02-28T06:38:31;101047.66;;;23.16;28.80
83557;BME280;73523;55.740;13.276;2024-02-28T06:40:56;101040.19;;;23.17;28.74
83557;BME280;73523;55.740;13.276;2024-02-28T06:43:22;101032.41;;;23.14;29.11
83557;BME280;73523;55.740;13.276;2024-02-28T06:45:47;101047.06;;;23.14;28.94
83557;BME280;73523;55.740;13.276;2024-02-28T06:48:13;101048.16;;;23.13;28.98
83557;BME280;73523;55.740;13.276;2024-02-28T06:50:38;101050.09;;;23.13;28.90
83557;BME280;73523;55.740;13.276;2024-02-28T06:53:03;101051.19;;;23.12;28.99
83557;BME280;73523;55.740;13.276;2024-02-28T06:55:29;101060.56;;;23.11;29.16
83557;BME280;73523;55.740;13.276;2024-02-28T06:57:54;101051.69;;;23.09;29.14
83557;BME280;73523;55.740;13.276;2024-02-28T07:00:19;101056.38;;;23.08;29.07
83557;BME280;73523;55.740;13.276;2024-02-28T07:02:45;101056.97;;;23.10;29.01
83557;BME280;73523;55.740;13.276;2024-02-28T07:05:10;101059.72;;;23.10;29.15
83557;BME280;73523;55.740;13.276;2024-02-28T07:07:36;101061.91;;;23.08;29.13
83557;BME280;73523;55.740;13.276;2024-02-28T07:10:04;101061.16;;;23.13;29.02
83557;BME280;73523;55.740;13.276;2024-02-28T07:12:30;101053.44;;;23.15;28.89
83557;BME280;73523;55.740;13.276;2024-02-28T07:14:56;101055.97;;;23.16;29.14
83557;BME280;73523;55.740;13.276;2024-02-28T07:17:21;101061.22;;;23.18;28.81
83557;BME280;73523;55.740;13.276;2024-02-28T07:19:47;101073.38;;;23.17;28.82
83557;BME280;73523;55.740;13.276;2024-02-28T07:22:12;101064.25;;;23.16;29.04
83557;BME280;73523;55.740;13.276;2024-02-28T07:24:37;101071.47;;;23.17;29.05
83557;BME280;73523;55.740;13.276;2024-02-28T07:27:03;101072.00;;;23.19;28.71
83557;BME280;73523;55.740;13.276;2024-02-28T07:29:29;101059.88;;;23.20;28.81
83557;BME280;73523;55.740;13.276;2024-02-28T07:31:54;101070.69;;;23.22;28.68
83557;BME280;73523;55.740;13.276;2024-02-28T07:34:20;101071.50;;;23.22;28.96
83557;BME280;73523;55.740;13.276;2024-02-28T07:36:45;101082.56;;;23.22;28.78
83557;BME280;73523;55.740;13.276;2024-02-28T07:39:10;101080.66;;;23.23;28.92
83557;BME280;73523;55.740;13.276;2024-02-28T07:41:40;101075.13;;;23.23;28.70
83557;BME280;73523;55.740;13.276;2024-02-28T07:44:07;101075.13;;;23.23;28.67
83557;BME280;73523;55.740;13.276;2024-02-28T07:46:33;101077.38;;;23.26;28.80
83557;BME280;73523;55.740;13.276;2024-02-28T07:48:58;101082.06;;;23.25;28.63
83557;BME280;73523;55.740;13.276;2024-02-28T07:51:24;101085.69;;;23.26;28.65
83557;BME280;73523;55.740;13.276;2024-02-28T07:53:49;101087.34;;;23.27;28.64
83557;BME280;73523;55.740;13.276;2024-02-28T07:56:18;101076.03;;;23.28;28.61
83557;BME280;73523;55.740;13.276;2024-02-28T07:58:44;101073.03;;;23.30;28.44
83557;BME280;73523;55.740;13.276;2024-02-28T08:01:10;101078.56;;;23.30;28.69
83557;BME280;73523;55.740;13.276;2024-02-28T08:03:35;101081.88;;;23.32;28.64
83557;BME280;73523;55.740;13.276;2024-02-28T08:06:01;101081.88;;;23.32;28.26
83557;BME280;73523;55.740;13.276;2024-02-28T08:08:26;101085.22;;;23.34;28.65
83557;BME280;73523;55.740;13.276;2024-02-28T08:10:51;101084.97;;;23.35;28.51
83557;BME280;73523;55.740;13.276;2024-02-28T08:13:18;101081.13;;;23.37;28.59
83557;BME280;73523;55.740;13.276;2024-02-28T08:15:43;101090.25;;;23.37;28.39
83557;BME280;73523;55.740;13.276;2024-02-28T08:18:09;101072.81;;;23.37;28.55
83557;BME280;73523;55.740;13.276;2024-02-28T08:20:39;101086.06;;;23.34;28.59
83557;BME280;73523;55.740;13.276;2024-02-28T08:23:05;101101.56;;;23.35;28.39
83557;BME280;73523;55.740;13.276;2024-02-28T08:25:30;101094.94;;;23.37;28.32
83557;BME280;73523;55.740;13.276;2024-02-28T08:27:56;101096.88;;;23.36;28.61
83557;BME280;73523;55.740;13.276;2024-02-28T08:30:21;101101.00;;;23.33;28.83
83557;BME280;73523;55.740;13.276;2024-02-28T08:32:47;101093.47;;;23.29;28.46
83557;BME280;73523;55.740;13.276;2024-02-28T08:35:12;101095.41;;;23.28;28.60
83557;BME280;73523;55.740;13.276;2024-02-28T08:37:40;101102.03;;;23.27;28.50
83557;BME280;73523;55.740;13.276;2024-02-28T08:40:07;101096.41;;;23.22;28.44
83557;BME280;73523;55.740;13.276;2024-02-28T08:42:32;101105.03;;;23.26;28.65
83557;BME280;73523;55.740;13.276;2024-02-28T08:44:59;101113.59;;;23.24;28.57
83557;BME280;73523;55.740;13.276;2024-02-28T08:47:25;101120.22;;;23.23;28.71
83557;BME280;73523;55.740;13.276;2024-02-28T08:49:52;101117.44;;;23.23;28.85
83557;BME280;73523;55.740;13.276;2024-02-28T08:52:17;101117.44;;;23.23;28.81
83557;BME280;73523;55.740;13.276;2024-02-28T08:54:43;101124.41;;;23.26;28.65
83557;BME280;73523;55.740;13.276;2024-02-28T08:57:08;101128.59;;;23.28;28.50
83557;BME280;73523;55.740;13.276;2024-02-28T08:59:33;101124.75;;;23.29;28.40
83557;BME280;73523;55.740;13.276;2024-02-28T09:01:59;101124.22;;;23.32;28.66
83557;BME280;73523;55.740;13.276;2024-02-28T09:04:24;101134.44;;;23.32;28.34
83557;BME280;73523;55.740;13.276;2024-02-28T09:06:49;101126.97;;;23.32;28.37
83557;BME280;73523;55.740;13.276;2024-02-28T09:09:15;101122.28;;;23.33;28.37
83557;BME280;73523;55.740;13.276;2024-02-28T09:11:40;101120.94;;;23.35;28.45
83557;BME280;73523;55.740;13.276;2024-02-28T09:14:05;101110.72;;;23.36;28.39
83557;BME280;73523;55.740;13.276;2024-02-28T09:16:31;101116.84;;;23.38;28.57
83557;BME280;73523;55.740;13.276;2024-02-28T09:18:56;101107.69;;;23.38;28.23
83557;BME280;73523;55.740;13.276;2024-02-28T09:21:21;101110.81;;;23.41;28.52
83557;BME280;73523;55.740;13.276;2024-02-28T09:23:46;101108.03;;;23.41;28.17
83557;BME280;73523;55.740;13.276;2024-02-28T09:26:12;101108.59;;;23.43;28.51
83557;BME280;73523;55.740;13.276;2024-02-28T09:28:38;101101.13;;;23.44;28.19
83557;BME280;73523;55.740;13.276;2024-02-28T09:31:03;101111.09;;;23.45;28.33
83557;BME280;73523;55.740;13.276;2024-02-28T09:33:29;101103.63;;;23.45;28.51
83557;BME280;73523;55.740;13.276;2024-02-28T09:35:54;101102.56;;;23.46;28.24
83557;BME280;73523;55.740;13.276;2024-02-28T09:38:19;101097.00;;;23.46;28.39
83557;BME280;73523;55.740;13.276;2024-02-28T09:40:46;101086.78;;;23.47;28.54
83557;BME280;73523;55.740;13.276;2024-02-28T09:43:40;101085.69;;;23.48;28.48
83557;BME280;73523;55.740;13.276;2024-02-28T09:46:07;101086.28;;;23.50;28.24
83557;BME280;73523;55.740;13.276;2024-02-28T09:48:35;101093.53;;;23.51;28.38
83557;BME280;73523;55.740;13.276;2024-02-28T09:51:03;101090.50;;;23.52;28.61
83557;BME280;73523;55.740;13.276;2024-02-28T09:53:29;101100.47;;;23.53;28.53
83557;BME280;73523;55.740;13.276;2024-02-28T09:55:54;101097.72;;;23.53;28.47
83557;BME280;73523;55.740;13.276;2024-02-28T09:58:20;101094.94;;;23.53;28.57
83557;BME280;73523;55.740;13.276;2024-02-28T10:00:48;101098.00;;;23.57;28.23
83557;BME280;73523;55.740;13.276;2024-02-28T10:03:17;101089.47;;;23.58;28.22
83557;BME280;73523;55.740;13.276;2024-02-28T10:05:44;101095.00;;;23.58;28.50
83557;BME280;73523;55.740;13.276;2024-02-28T10:08:10;101102.22;;;23.59;28.32
83557;BME280;73523;55.740;13.276;2024-02-28T10:10:44;101106.41;;;23.62;28.48
83557;BME280;73523;55.740;13.276;2024-02-28T10:13:09;101097.84;;;23.63;28.45
83557;BME280;73523;55.740;13.276;2024-02-28T10:15:35;101093.16;;;23.64;28.39
83557;BME280;73523;55.740;13.276;2024-02-28T10:18:00;101086.28;;;23.66;28.27
83557;BME280;73523;55.740;13.276;2024-02-28T10:20:25;101095.13;;;23.68;28.60
83557;BME280;73523;55.740;13.276;2024-02-28T10:22:52;101094.03;;;23.69;28.35
83557;BME280;73523;55.740;13.276;2024-02-28T10:25:18;101102.91;;;23.72;28.38
83557;BME280;73523;55.740;13.276;2024-02-28T10:27:44;101099.31;;;23.71;28.53
83557;BME280;73523;55.740;13.276;2024-02-28T10:30:09;101101.84;;;23.73;28.28
83557;BME280;73523;55.740;13.276;2024-02-28T10:32:35;101100.16;;;23.72;28.51
83557;BME280;73523;55.740;13.276;2024-02-28T10:35:02;101106.84;;;23.76;28.64
83557;BME280;73523;55.740;13.276;2024-02-28T10:37:29;101109.63;;;23.76;28.58
83557;BME280;73523;55.740;13.276;2024-02-28T10:39:56;101103.84;;;23.77;28.19
83557;BME280;73523;55.740;13.276;2024-02-28T10:42:22;101107.75;;;23.81;28.39
83557;BME280;73523;55.740;13.276;2024-02-28T10:44:52;101106.91;;;23.81;28.28
83557;BME280;73523;55.740;13.276;2024-02-28T10:47:17;101108.31;;;23.83;28.06
83557;BME280;73523;55.740;13.276;2024-02-28T10:49:43;101101.13;;;23.82;28.40
83557;BME280;73523;55.740;13.276;2024-02-28T10:52:12;101110.59;;;23.86;28.10
83557;BME280;73523;55.740;13.276;2024-02-28T10:54:40;101100.59;;;23.85;28.11
83557;BME280;73523;55.740;13.276;2024-02-28T10:57:08;101094.22;;;23.85;28.55
83557;BME280;73523;55.740;13.276;2024-02-28T10:59:35;101102.53;;;23.85;28.44
83557;BME280;73523;55.740;13.276;2024-02-28T11:02:02;101111.69;;;23.85;28.42
83557;BME280;73523;55.740;13.276;2024-02-28T11:04:28;101106.72;;;23.87;28.30
83557;BME280;73523;55.740;13.276;2024-02-28T11:06:55;101106.97;;;23.86;28.63
83557;BME280;73523;55.740;13.276;2024-02-28T11:09:24;101110.59;;;23.86;28.53
83557;BME280;73523;55.740;13.276;2024-02-28T11:11:53;101109.16;;;23.84;28.18
83557;BME280;73523;55.740;13.276;2024-02-28T11:14:19;101114.69;;;23.84;28.31
83557;BME280;73523;55.740;13.276;2024-02-28T11:17:03;101106.66;;;23.82;28.40
83557;BME280;73523;55.740;13.276;2024-02-28T11:19:29;101107.50;;;23.83;28.41
83557;BME280;73523;55.740;13.276;2024-02-28T11:22:01;101101.63;;;23.79;28.25
83557;BME280;73523;55.740;13.276;2024-02-28T11:24:31;101097.75;;;23.80;28.47
83557;BME280;73523;55.740;13.276;2024-02-28T11:26:56;101103.03;;;23.82;28.33
83557;BME280;73523;55.740;13.276;2024-02-28T11:29:26;101103.88;;;23.82;28.64
83557;BME280;73523;55.740;13.276;2024-02-28T11:31:52;101100.53;;;23.80;28.27
83557;BME280;73523;55.740;13.276;2024-02-28T11:34:18;101098.59;;;23.81;28.56
83557;BME280;73523;55.740;13.276;2024-02-28T11:36:50;101096.91;;;23.80;28.54
83557;BME280;73523;55.740;13.276;2024-02-28T11:39:16;101101.38;;;23.81;28.55
83557;BME280;73523;55.740;13.276;2024-02-28T11:41:42;101104.13;;;23.81;28.70
83557;BME280;73523;55.740;13.276;2024-02-28T11:44:12;101099.69;;;23.80;28.20
83557;BME280;73523;55.740;13.276;2024-02-28T11:46:37;101096.91;;;23.80;28.27
83557;BME280;73523;55.740;13.276;2024-02-28T11:49:02;101104.38;;;23.79;28.58
83557;BME280;73523;55.740;13.276;2024-02-28T11:51:28;101112.19;;;23.82;28.39
83557;BME280;73523;55.740;13.276;2024-02-28T11:53:54;101101.38;;;23.81;28.50
83557;BME280;73523;55.740;13.276;2024-02-28T11:56:19;101099.44;;;23.81;28.56
83557;BME280;73523;55.740;13.276;2024-02-28T11:58:53;101101.13;;;23.82;28.26
83557;BME280;73523;55.740;13.276;2024-02-28T12:01:19;101107.50;;;23.83;28.35
83557;BME280;73523;55.740;13.276;2024-02-28T12:03:45;101102.47;;;23.80;28.47
83557;BME280;73523;55.740;13.276;2024-02-28T12:06:11;101097.25;;;23.83;28.28
83557;BME280;73523;55.740;13.276;2024-02-28T12:08:36;101096.41;;;23.83;28.32
83557;BME280;73523;55.740;13.276;2024-02-28T12:11:08;101099.19;;;23.83;28.65
83557;BME280;73523;55.740;13.276;2024-02-28T12:13:35;101096.66;;;23.81;28.59
83557;BME280;73523;55.740;13.276;2024-02-28T12:16:02;101103.88;;;23.82;28.76
83557;BME280;73523;55.740;13.276;2024-02-28T12:18:28;101095.81;;;23.81;28.25
83557;BME280;73523;55.740;13.276;2024-02-28T12:20:54;101093.91;;;23.81;28.64
83557;BME280;73523;55.740;13.276;2024-02-28T12:23:19;101097.75;;;23.80;28.46
83557;BME280;73523;55.740;13.276;2024-02-28T12:25:45;101096.09;;;23.79;28.70
83557;BME280;73523;55.740;13.276;2024-02-28T12:28:10;101086.97;;;23.79;28.56
83557;BME280;73523;55.740;13.276;2024-02-28T12:30:40;101090.53;;;23.79;28.57
83557;BME280;73523;55.740;13.276;2024-02-28T12:33:07;101078.66;;;23.79;28.36